Terminal Aerodrome Forecast
Issued by NWS

Home | Current Version | Previous Version | Text Only | Print | Product List | Glossary On
Versions: 1 2 3 4 5 6 7 8 9 10 11 12 13 14 15 16
716
FTUS43 KEAX 080520
TAFSTJ
TAF
KSTJ 080520Z 0806/0906 32018G28KT P6SM VCSH OVC030
      TEMPO 0808/0812 5SM -SHSN OVC025
     FM081800 33025G35KT P6SM OVC035
     FM090100 33020G30KT P6SM SCT040=

USA.gov is the U.S. government's official web portal to all federal, state and local government web resources and services.